sensor_id;sensor_type;location;lat;lon;timestamp;P1;durP1;ratioP1;P2;durP2;ratioP2
12407;SDS011;6268;48.188;17.134;2024-03-23T00:52:34;9.43;;;8.63;;
12407;SDS011;6268;48.188;17.134;2024-03-23T00:55:57;10.25;;;8.48;;
12407;SDS011;6268;48.188;17.134;2024-03-23T00:59:18;8.45;;;7.63;;
12407;SDS011;6268;48.188;17.134;2024-03-23T01:02:38;8.43;;;7.72;;
12407;SDS011;6268;48.188;17.134;2024-03-23T01:05:59;9.48;;;8.15;;
12407;SDS011;6268;48.188;17.134;2024-03-23T01:09:19;8.32;;;7.50;;
12407;SDS011;6268;48.188;17.134;2024-03-23T01:12:40;8.60;;;7.70;;
12407;SDS011;6268;48.188;17.134;2024-03-23T01:16:00;8.32;;;7.60;;
12407;SDS011;6268;48.188;17.134;2024-03-23T01:19:21;8.48;;;7.68;;
12407;SDS011;6268;48.188;17.134;2024-03-23T01:22:40;10.48;;;8.27;;
12407;SDS011;6268;48.188;17.134;2024-03-23T01:26:00;8.38;;;7.68;;
12407;SDS011;6268;48.188;17.134;2024-03-23T01:29:23;9.13;;;8.18;;
12407;SDS011;6268;48.188;17.134;2024-03-23T01:32:42;10.50;;;8.13;;
12407;SDS011;6268;48.188;17.134;2024-03-23T01:36:03;10.98;;;7.85;;
12407;SDS011;6268;48.188;17.134;2024-03-23T01:39:23;8.25;;;7.57;;
12407;SDS011;6268;48.188;17.134;2024-03-23T01:42:54;9.23;;;8.32;;
12407;SDS011;6268;48.188;17.134;2024-03-23T01:46:17;17.77;;;9.48;;
12407;SDS011;6268;48.188;17.134;2024-03-23T01:49:38;13.65;;;9.95;;
12407;SDS011;6268;48.188;17.134;2024-03-23T01:53:00;13.32;;;9.63;;
12407;SDS011;6268;48.188;17.134;2024-03-23T01:56:22;15.07;;;10.50;;
12407;SDS011;6268;48.188;17.134;2024-03-23T01:59:42;10.88;;;9.70;;
12407;SDS011;6268;48.188;17.134;2024-03-23T02:03:11;14.77;;;9.80;;
12407;SDS011;6268;48.188;17.134;2024-03-23T02:06:42;15.18;;;9.63;;
12407;SDS011;6268;48.188;17.134;2024-03-23T02:10:02;9.32;;;8.48;;
12407;SDS011;6268;48.188;17.134;2024-03-23T02:13:24;10.02;;;9.10;;
12407;SDS011;6268;48.188;17.134;2024-03-23T02:16:44;10.50;;;8.20;;
12407;SDS011;6268;48.188;17.134;2024-03-23T02:20:07;9.30;;;8.48;;
12407;SDS011;6268;48.188;17.134;2024-03-23T02:23:30;9.85;;;8.13;;
12407;SDS011;6268;48.188;17.134;2024-03-23T02:26:50;10.05;;;8.48;;
12407;SDS011;6268;48.188;17.134;2024-03-23T02:30:10;10.63;;;8.38;;
12407;SDS011;6268;48.188;17.134;2024-03-23T02:33:31;9.75;;;8.85;;
12407;SDS011;6268;48.188;17.134;2024-03-23T02:36:50;10.75;;;8.57;;
12407;SDS011;6268;48.188;17.134;2024-03-23T02:40:12;10.73;;;8.57;;
12407;SDS011;6268;48.188;17.134;2024-03-23T02:43:31;9.00;;;8.20;;
12407;SDS011;6268;48.188;17.134;2024-03-23T02:46:53;9.20;;;8.32;;
12407;SDS011;6268;48.188;17.134;2024-03-23T02:50:17;8.93;;;8.13;;
12407;SDS011;6268;48.188;17.134;2024-03-23T02:53:36;8.80;;;8.00;;
12407;SDS011;6268;48.188;17.134;2024-03-23T02:56:58;11.63;;;8.73;;
12407;SDS011;6268;48.188;17.134;2024-03-23T03:00:20;9.68;;;8.68;;
12407;SDS011;6268;48.188;17.134;2024-03-23T03:03:39;9.02;;;8.23;;
12407;SDS011;6268;48.188;17.134;2024-03-23T03:06:59;8.95;;;8.18;;
12407;SDS011;6268;48.188;17.134;2024-03-23T03:10:20;9.52;;;8.30;;
12407;SDS011;6268;48.188;17.134;2024-03-23T03:13:42;9.80;;;9.00;;
12407;SDS011;6268;48.188;17.134;2024-03-23T03:17:01;9.75;;;8.95;;
12407;SDS011;6268;48.188;17.134;2024-03-23T03:20:21;13.18;;;10.48;;
12407;SDS011;6268;48.188;17.134;2024-03-23T03:23:42;10.80;;;9.70;;
12407;SDS011;6268;48.188;17.134;2024-03-23T03:27:02;11.85;;;10.43;;
12407;SDS011;6268;48.188;17.134;2024-03-23T03:30:23;10.52;;;9.52;;
12407;SDS011;6268;48.188;17.134;2024-03-23T03:33:44;10.70;;;9.80;;
12407;SDS011;6268;48.188;17.134;2024-03-23T03:37:04;11.55;;;10.45;;
12407;SDS011;6268;48.188;17.134;2024-03-23T03:40:24;10.85;;;9.75;;
12407;SDS011;6268;48.188;17.134;2024-03-23T03:43:44;9.95;;;9.02;;
12407;SDS011;6268;48.188;17.134;2024-03-23T03:47:07;11.77;;;9.23;;
12407;SDS011;6268;48.188;17.134;2024-03-23T03:50:27;10.70;;;9.60;;
12407;SDS011;6268;48.188;17.134;2024-03-23T03:53:48;10.13;;;9.30;;
12407;SDS011;6268;48.188;17.134;2024-03-23T03:57:08;11.15;;;10.05;;
12407;SDS011;6268;48.188;17.134;2024-03-23T04:00:27;10.90;;;9.80;;
12407;SDS011;6268;48.188;17.134;2024-03-23T04:03:49;10.18;;;9.27;;
12407;SDS011;6268;48.188;17.134;2024-03-23T04:07:10;11.48;;;10.38;;
12407;SDS011;6268;48.188;17.134;2024-03-23T04:10:30;11.80;;;10.57;;
12407;SDS011;6268;48.188;17.134;2024-03-23T04:13:50;10.23;;;9.30;;
12407;SDS011;6268;48.188;17.134;2024-03-23T04:17:10;10.50;;;9.60;;
12407;SDS011;6268;48.188;17.134;2024-03-23T04:20:32;10.65;;;9.63;;
12407;SDS011;6268;48.188;17.134;2024-03-23T04:23:51;12.73;;;10.75;;
12407;SDS011;6268;48.188;17.134;2024-03-23T04:27:12;11.85;;;10.25;;
12407;SDS011;6268;48.188;17.134;2024-03-23T04:30:32;11.43;;;10.40;;
12407;SDS011;6268;48.188;17.134;2024-03-23T04:33:52;12.27;;;11.07;;
12407;SDS011;6268;48.188;17.134;2024-03-23T04:37:13;12.73;;;11.63;;
12407;SDS011;6268;48.188;17.134;2024-03-23T04:40:34;13.68;;;12.15;;
12407;SDS011;6268;48.188;17.134;2024-03-23T04:43:55;14.15;;;12.75;;
12407;SDS011;6268;48.188;17.134;2024-03-23T04:47:16;14.25;;;12.88;;
12407;SDS011;6268;48.188;17.134;2024-03-23T04:50:37;14.52;;;13.20;;
12407;SDS011;6268;48.188;17.134;2024-03-23T04:54:04;15.43;;;13.93;;
12407;SDS011;6268;48.188;17.134;2024-03-23T04:57:25;15.20;;;13.82;;
12407;SDS011;6268;48.188;17.134;2024-03-23T05:00:45;16.15;;;14.55;;
12407;SDS011;6268;48.188;17.134;2024-03-23T05:04:07;16.35;;;13.98;;
12407;SDS011;6268;48.188;17.134;2024-03-23T05:07:27;15.68;;;13.82;;
12407;SDS011;6268;48.188;17.134;2024-03-23T05:10:50;18.02;;;14.93;;
12407;SDS011;6268;48.188;17.134;2024-03-23T05:14:10;16.52;;;14.82;;
12407;SDS011;6268;48.188;17.134;2024-03-23T05:17:31;16.42;;;14.73;;
12407;SDS011;6268;48.188;17.134;2024-03-23T05:20:55;16.90;;;15.20;;
12407;SDS011;6268;48.188;17.134;2024-03-23T05:24:15;19.05;;;15.98;;
12407;SDS011;6268;48.188;17.134;2024-03-23T05:27:36;17.45;;;15.60;;
12407;SDS011;6268;48.188;17.134;2024-03-23T05:30:57;18.23;;;16.33;;
12407;SDS011;6268;48.188;17.134;2024-03-23T05:34:18;16.73;;;15.13;;
12407;SDS011;6268;48.188;17.134;2024-03-23T05:37:37;18.83;;;16.92;;
12407;SDS011;6268;48.188;17.134;2024-03-23T05:40:58;21.63;;;16.23;;
12407;SDS011;6268;48.188;17.134;2024-03-23T05:44:21;20.60;;;17.55;;
12407;SDS011;6268;48.188;17.134;2024-03-23T05:47:43;18.02;;;16.13;;
12407;SDS011;6268;48.188;17.134;2024-03-23T05:51:04;19.50;;;17.50;;
12407;SDS011;6268;48.188;17.134;2024-03-23T05:54:23;17.63;;;15.82;;
12407;SDS011;6268;48.188;17.134;2024-03-23T05:57:43;17.67;;;15.90;;
12407;SDS011;6268;48.188;17.134;2024-03-23T06:01:05;18.05;;;16.20;;
12407;SDS011;6268;48.188;17.134;2024-03-23T06:04:26;18.45;;;16.55;;
12407;SDS011;6268;48.188;17.134;2024-03-23T06:07:45;20.27;;;16.92;;
12407;SDS011;6268;48.188;17.134;2024-03-23T06:11:05;19.67;;;17.48;;
12407;SDS011;6268;48.188;17.134;2024-03-23T06:14:25;18.52;;;16.63;;
12407;SDS011;6268;48.188;17.134;2024-03-23T06:17:47;19.00;;;17.20;;
12407;SDS011;6268;48.188;17.134;2024-03-23T06:21:12;21.27;;;16.88;;
12407;SDS011;6268;48.188;17.134;2024-03-23T06:24:33;20.65;;;17.10;;
12407;SDS011;6268;48.188;17.134;2024-03-23T06:27:53;19.70;;;17.17;;
12407;SDS011;6268;48.188;17.134;2024-03-23T06:31:13;28.67;;;19.00;;
12407;SDS011;6268;48.188;17.134;2024-03-23T06:34:35;23.83;;;17.77;;
12407;SDS011;6268;48.188;17.134;2024-03-23T06:37:56;21.08;;;18.88;;
12407;SDS011;6268;48.188;17.134;2024-03-23T06:41:15;23.20;;;19.00;;
12407;SDS011;6268;48.188;17.134;2024-03-23T06:44:35;19.55;;;17.55;;
12407;SDS011;6268;48.188;17.134;2024-03-23T06:47:56;19.27;;;17.27;;
12407;SDS011;6268;48.188;17.134;2024-03-23T06:51:17;19.55;;;17.45;;
12407;SDS011;6268;48.188;17.134;2024-03-23T06:54:37;19.98;;;17.83;;
12407;SDS011;6268;48.188;17.134;2024-03-23T06:57:57;23.45;;;17.73;;
12407;SDS011;6268;48.188;17.134;2024-03-23T07:01:16;20.90;;;18.23;;
12407;SDS011;6268;48.188;17.134;2024-03-23T07:04:37;21.70;;;18.20;;
12407;SDS011;6268;48.188;17.134;2024-03-23T07:07:58;24.08;;;18.83;;
12407;SDS011;6268;48.188;17.134;2024-03-23T07:11:19;19.65;;;17.42;;
12407;SDS011;6268;48.188;17.134;2024-03-23T07:14:39;19.88;;;17.23;;
12407;SDS011;6268;48.188;17.134;2024-03-23T07:18:00;21.58;;;18.67;;
12407;SDS011;6268;48.188;17.134;2024-03-23T07:21:21;20.15;;;18.10;;
12407;SDS011;6268;48.188;17.134;2024-03-23T07:24:43;37.35;;;20.30;;
12407;SDS011;6268;48.188;17.134;2024-03-23T07:28:04;21.55;;;19.10;;
12407;SDS011;6268;48.188;17.134;2024-03-23T07:31:24;29.17;;;20.88;;
12407;SDS011;6268;48.188;17.134;2024-03-23T07:34:44;24.73;;;18.95;;
12407;SDS011;6268;48.188;17.134;2024-03-23T07:38:05;22.33;;;19.13;;
12407;SDS011;6268;48.188;17.134;2024-03-23T07:41:26;27.67;;;19.70;;
12407;SDS011;6268;48.188;17.134;2024-03-23T07:44:47;19.52;;;17.63;;
12407;SDS011;6268;48.188;17.134;2024-03-23T07:48:06;20.92;;;18.73;;
12407;SDS011;6268;48.188;17.134;2024-03-23T07:51:27;23.33;;;18.05;;
12407;SDS011;6268;48.188;17.134;2024-03-23T07:54:47;23.52;;;17.60;;
12407;SDS011;6268;48.188;17.134;2024-03-23T07:58:09;21.95;;;18.48;;
12407;SDS011;6268;48.188;17.134;2024-03-23T08:01:29;22.10;;;17.65;;
12407;SDS011;6268;48.188;17.134;2024-03-23T08:04:50;25.20;;;18.40;;
12407;SDS011;6268;48.188;17.134;2024-03-23T08:08:09;26.35;;;19.58;;
12407;SDS011;6268;48.188;17.134;2024-03-23T08:11:30;22.05;;;17.67;;
12407;SDS011;6268;48.188;17.134;2024-03-23T08:14:51;18.67;;;16.75;;
12407;SDS011;6268;48.188;17.134;2024-03-23T08:18:12;19.52;;;17.50;;
12407;SDS011;6268;48.188;17.134;2024-03-23T08:21:34;19.05;;;16.45;;
12407;SDS011;6268;48.188;17.134;2024-03-23T08:24:54;18.17;;;16.27;;
12407;SDS011;6268;48.188;17.134;2024-03-23T08:28:24;19.60;;;17.20;;
12407;SDS011;6268;48.188;17.134;2024-03-23T08:31:46;17.83;;;15.88;;
12407;SDS011;6268;48.188;17.134;2024-03-23T08:35:06;18.63;;;16.83;;
12407;SDS011;6268;48.188;17.134;2024-03-23T08:38:28;18.70;;;16.35;;
12407;SDS011;6268;48.188;17.134;2024-03-23T08:41:48;17.25;;;15.65;;
12407;SDS011;6268;48.188;17.134;2024-03-23T08:45:10;25.98;;;17.58;;
12407;SDS011;6268;48.188;17.134;2024-03-23T08:48:33;18.02;;;16.27;;
12407;SDS011;6268;48.188;17.134;2024-03-23T08:51:54;16.95;;;15.32;;
12407;SDS011;6268;48.188;17.134;2024-03-23T08:55:16;17.80;;;15.88;;
12407;SDS011;6268;48.188;17.134;2024-03-23T08:58:37;19.83;;;15.32;;
12407;SDS011;6268;48.188;17.134;2024-03-23T09:01:58;15.38;;;13.75;;
12407;SDS011;6268;48.188;17.134;2024-03-23T09:05:20;16.63;;;14.90;;
12407;SDS011;6268;48.188;17.134;2024-03-23T09:08:41;16.30;;;14.68;;
12407;SDS011;6268;48.188;17.134;2024-03-23T09:12:02;17.17;;;15.48;;
12407;SDS011;6268;48.188;17.134;2024-03-23T09:15:21;16.23;;;14.52;;
12407;SDS011;6268;48.188;17.134;2024-03-23T09:18:42;18.70;;;14.82;;
12407;SDS011;6268;48.188;17.134;2024-03-23T09:22:05;14.55;;;13.07;;
12407;SDS011;6268;48.188;17.134;2024-03-23T09:25:24;15.02;;;12.80;;
12407;SDS011;6268;48.188;17.134;2024-03-23T09:28:44;13.13;;;11.80;;
12407;SDS011;6268;48.188;17.134;2024-03-23T09:32:07;13.90;;;12.65;;
12407;SDS011;6268;48.188;17.134;2024-03-23T09:35:27;19.38;;;13.43;;
12407;SDS011;6268;48.188;17.134;2024-03-23T09:38:49;17.15;;;15.35;;
12407;SDS011;6268;48.188;17.134;2024-03-23T09:42:09;23.10;;;15.35;;
12407;SDS011;6268;48.188;17.134;2024-03-23T09:45:31;15.88;;;11.88;;
12407;SDS011;6268;48.188;17.134;2024-03-23T09:48:55;17.85;;;12.75;;
12407;SDS011;6268;48.188;17.134;2024-03-23T09:52:15;16.35;;;12.00;;
12407;SDS011;6268;48.188;17.134;2024-03-23T09:55:40;15.75;;;11.25;;
12407;SDS011;6268;48.188;17.134;2024-03-23T09:59:00;13.50;;;12.20;;
12407;SDS011;6268;48.188;17.134;2024-03-23T10:02:22;13.60;;;12.25;;
12407;SDS011;6268;48.188;17.134;2024-03-23T10:05:42;15.27;;;13.77;;
12407;SDS011;6268;48.188;17.134;2024-03-23T10:09:05;16.73;;;15.10;;
12407;SDS011;6268;48.188;17.134;2024-03-23T10:12:40;20.63;;;18.38;;
12407;SDS011;6268;48.188;17.134;2024-03-23T10:16:06;17.13;;;15.50;;
12407;SDS011;6268;48.188;17.134;2024-03-23T10:19:38;15.23;;;13.80;;
12407;SDS011;6268;48.188;17.134;2024-03-23T10:22:58;15.40;;;14.00;;
12407;SDS011;6268;48.188;17.134;2024-03-23T10:26:19;18.30;;;16.30;;
12407;SDS011;6268;48.188;17.134;2024-03-23T10:29:44;13.82;;;12.63;;
12407;SDS011;6268;48.188;17.134;2024-03-23T10:33:09;15.68;;;14.18;;
12407;SDS011;6268;48.188;17.134;2024-03-23T10:36:30;13.23;;;11.77;;
12407;SDS011;6268;48.188;17.134;2024-03-23T10:39:50;13.43;;;12.05;;
12407;SDS011;6268;48.188;17.134;2024-03-23T10:43:11;15.40;;;14.07;;
12407;SDS011;6268;48.188;17.134;2024-03-23T10:46:34;14.52;;;13.15;;
12407;SDS011;6268;48.188;17.134;2024-03-23T10:49:54;13.48;;;12.07;;
12407;SDS011;6268;48.188;17.134;2024-03-23T10:53:13;13.38;;;12.07;;
12407;SDS011;6268;48.188;17.134;2024-03-23T10:56:38;17.38;;;15.70;;
12407;SDS011;6268;48.188;17.134;2024-03-23T11:00:02;14.70;;;13.38;;
12407;SDS011;6268;48.188;17.134;2024-03-23T11:03:34;13.77;;;12.38;;
12407;SDS011;6268;48.188;17.134;2024-03-23T11:06:59;15.85;;;13.32;;
12407;SDS011;6268;48.188;17.134;2024-03-23T11:10:26;12.98;;;11.68;;
12407;SDS011;6268;48.188;17.134;2024-03-23T11:13:47;13.25;;;12.05;;
12407;SDS011;6268;48.188;17.134;2024-03-23T11:17:08;12.00;;;10.90;;
12407;SDS011;6268;48.188;17.134;2024-03-23T11:20:35;13.90;;;12.63;;
12407;SDS011;6268;48.188;17.134;2024-03-23T11:24:14;15.73;;;12.60;;
12407;SDS011;6268;48.188;17.134;2024-03-23T11:27:43;13.10;;;11.93;;
12407;SDS011;6268;48.188;17.134;2024-03-23T11:31:09;12.57;;;11.38;;
12407;SDS011;6268;48.188;17.134;2024-03-23T11:34:30;13.07;;;11.70;;
12407;SDS011;6268;48.188;17.134;2024-03-23T11:38:04;12.00;;;10.98;;
12407;SDS011;6268;48.188;17.134;2024-03-23T11:41:45;13.07;;;11.85;;
12407;SDS011;6268;48.188;17.134;2024-03-23T11:45:07;13.27;;;11.95;;
12407;SDS011;6268;48.188;17.134;2024-03-23T11:48:29;14.48;;;13.18;;
12407;SDS011;6268;48.188;17.134;2024-03-23T11:51:48;13.40;;;12.20;;
12407;SDS011;6268;48.188;17.134;2024-03-23T11:55:11;17.60;;;13.30;;
12407;SDS011;6268;48.188;17.134;2024-03-23T11:58:32;22.63;;;20.35;;
12407;SDS011;6268;48.188;17.134;2024-03-23T12:01:57;13.55;;;12.27;;
12407;SDS011;6268;48.188;17.134;2024-03-23T12:05:18;15.45;;;14.05;;
12407;SDS011;6268;48.188;17.134;2024-03-23T12:08:45;14.15;;;12.95;;
12407;SDS011;6268;48.188;17.134;2024-03-23T12:12:08;12.88;;;11.77;;
12407;SDS011;6268;48.188;17.134;2024-03-23T12:15:29;16.35;;;14.50;;
12407;SDS011;6268;48.188;17.134;2024-03-23T12:18:53;14.27;;;12.98;;
12407;SDS011;6268;48.188;17.134;2024-03-23T12:22:24;13.10;;;11.90;;
12407;SDS011;6268;48.188;17.134;2024-03-23T12:25:48;12.93;;;11.63;;
12407;SDS011;6268;48.188;17.134;2024-03-23T12:29:09;10.43;;;9.35;;
12407;SDS011;6268;48.188;17.134;2024-03-23T12:32:30;11.07;;;10.07;;
12407;SDS011;6268;48.188;17.134;2024-03-23T12:35:50;20.92;;;18.60;;
12407;SDS011;6268;48.188;17.134;2024-03-23T12:39:10;19.13;;;17.20;;
12407;SDS011;6268;48.188;17.134;2024-03-23T12:42:31;12.82;;;11.57;;
12407;SDS011;6268;48.188;17.134;2024-03-23T12:45:54;10.15;;;9.20;;
12407;SDS011;6268;48.188;17.134;2024-03-23T12:49:13;10.63;;;9.55;;
12407;SDS011;6268;48.188;17.134;2024-03-23T12:52:35;9.63;;;8.82;;
12407;SDS011;6268;48.188;17.134;2024-03-23T12:55:54;11.02;;;9.50;;
12407;SDS011;6268;48.188;17.134;2024-03-23T12:59:15;10.93;;;9.45;;
12407;SDS011;6268;48.188;17.134;2024-03-23T13:02:39;9.85;;;8.88;;
12407;SDS011;6268;48.188;17.134;2024-03-23T13:05:59;9.05;;;8.15;;
12407;SDS011;6268;48.188;17.134;2024-03-23T13:09:20;8.95;;;8.02;;
12407;SDS011;6268;48.188;17.134;2024-03-23T13:12:40;8.98;;;7.00;;
12407;SDS011;6268;48.188;17.134;2024-03-23T13:16:00;7.10;;;6.10;;
12407;SDS011;6268;48.188;17.134;2024-03-23T13:19:22;6.88;;;6.20;;
12407;SDS011;6268;48.188;17.134;2024-03-23T13:22:42;6.15;;;5.70;;
12407;SDS011;6268;48.188;17.134;2024-03-23T13:26:03;6.13;;;5.63;;
12407;SDS011;6268;48.188;17.134;2024-03-23T13:29:24;6.10;;;5.60;;
12407;SDS011;6268;48.188;17.134;2024-03-23T13:32:44;8.43;;;6.80;;
12407;SDS011;6268;48.188;17.134;2024-03-23T13:36:07;6.40;;;5.90;;
12407;SDS011;6268;48.188;17.134;2024-03-23T13:39:27;6.07;;;5.47;;
12407;SDS011;6268;48.188;17.134;2024-03-23T13:42:47;5.68;;;5.13;;
12407;SDS011;6268;48.188;17.134;2024-03-23T13:46:06;8.55;;;5.15;;
12407;SDS011;6268;48.188;17.134;2024-03-23T13:49:27;6.53;;;4.97;;
12407;SDS011;6268;48.188;17.134;2024-03-23T13:52:49;6.40;;;5.00;;
12407;SDS011;6268;48.188;17.134;2024-03-23T13:56:09;5.43;;;4.75;;
12407;SDS011;6268;48.188;17.134;2024-03-23T13:59:30;5.13;;;4.72;;
12407;SDS011;6268;48.188;17.134;2024-03-23T14:02:50;5.57;;;5.18;;
12407;SDS011;6268;48.188;17.134;2024-03-23T14:06:11;99.43;;;11.88;;
12407;SDS011;6268;48.188;17.134;2024-03-23T14:09:34;7.75;;;1.90;;
12407;SDS011;6268;48.188;17.134;2024-03-23T14:12:53;7.05;;;2.20;;
12407;SDS011;6268;48.188;17.134;2024-03-23T14:16:13;1.77;;;1.33;;
12407;SDS011;6268;48.188;17.134;2024-03-23T14:19:37;12.13;;;2.28;;
12407;SDS011;6268;48.188;17.134;2024-03-23T14:22:57;5.85;;;1.10;;
12407;SDS011;6268;48.188;17.134;2024-03-23T14:26:19;1.23;;;0.80;;
12407;SDS011;6268;48.188;17.134;2024-03-23T14:29:40;1.15;;;0.82;;
12407;SDS011;6268;48.188;17.134;2024-03-23T14:33:00;2.72;;;0.90;;
12407;SDS011;6268;48.188;17.134;2024-03-23T14:36:20;1.92;;;0.73;;
12407;SDS011;6268;48.188;17.134;2024-03-23T14:39:41;2.42;;;1.00;;
12407;SDS011;6268;48.188;17.134;2024-03-23T14:43:04;1.60;;;0.82;;
12407;SDS011;6268;48.188;17.134;2024-03-23T14:46:23;1.65;;;0.73;;
12407;SDS011;6268;48.188;17.134;2024-03-23T14:49:43;1.77;;;0.82;;
12407;SDS011;6268;48.188;17.134;2024-03-23T14:53:04;0.98;;;0.98;;
12407;SDS011;6268;48.188;17.134;2024-03-23T14:56:23;1.05;;;0.77;;
12407;SDS011;6268;48.188;17.134;2024-03-23T14:59:47;0.57;;;0.57;;
12407;SDS011;6268;48.188;17.134;2024-03-23T15:03:06;4.13;;;0.88;;
12407;SDS011;6268;48.188;17.134;2024-03-23T15:06:26;2.08;;;0.93;;
12407;SDS011;6268;48.188;17.134;2024-03-23T15:09:47;2.25;;;0.80;;
12407;SDS011;6268;48.188;17.134;2024-03-23T15:13:07;1.20;;;0.90;;
12407;SDS011;6268;48.188;17.134;2024-03-23T15:16:29;0.80;;;0.80;;
12407;SDS011;6268;48.188;17.134;2024-03-23T15:19:49;1.15;;;0.80;;
12407;SDS011;6268;48.188;17.134;2024-03-23T15:23:18;2.03;;;0.90;;
12407;SDS011;6268;48.188;17.134;2024-03-23T15:26:38;1.10;;;0.85;;
12407;SDS011;6268;48.188;17.134;2024-03-23T15:29:57;2.25;;;1.45;;
12407;SDS011;6268;48.188;17.134;2024-03-23T15:33:20;1.60;;;1.50;;
12407;SDS011;6268;48.188;17.134;2024-03-23T15:36:40;4.40;;;4.00;;
12407;SDS011;6268;48.188;17.134;2024-03-23T15:40:00;2.47;;;1.67;;
12407;SDS011;6268;48.188;17.134;2024-03-23T15:43:21;0.80;;;0.80;;
12407;SDS011;6268;48.188;17.134;2024-03-23T15:46:41;1.42;;;1.25;;
12407;SDS011;6268;48.188;17.134;2024-03-23T15:50:02;2.08;;;1.30;;
12407;SDS011;6268;48.188;17.134;2024-03-23T15:53:24;3.00;;;1.15;;
12407;SDS011;6268;48.188;17.134;2024-03-23T15:56:45;0.88;;;0.88;;
12407;SDS011;6268;48.188;17.134;2024-03-23T16:00:07;1.10;;;1.00;;
12407;SDS011;6268;48.188;17.134;2024-03-23T16:03:28;0.88;;;0.88;;
12407;SDS011;6268;48.188;17.134;2024-03-23T16:06:50;0.98;;;0.90;;
12407;SDS011;6268;48.188;17.134;2024-03-23T16:10:11;2.13;;;1.08;;
12407;SDS011;6268;48.188;17.134;2024-03-23T16:13:31;0.57;;;0.57;;
12407;SDS011;6268;48.188;17.134;2024-03-23T16:16:51;0.80;;;0.80;;
12407;SDS011;6268;48.188;17.134;2024-03-23T16:20:12;1.23;;;0.60;;
12407;SDS011;6268;48.188;17.134;2024-03-23T16:23:33;1.00;;;0.60;;
12407;SDS011;6268;48.188;17.134;2024-03-23T16:26:54;1.63;;;0.90;;
12407;SDS011;6268;48.188;17.134;2024-03-23T16:30:14;2.58;;;0.80;;
12407;SDS011;6268;48.188;17.134;2024-03-23T16:33:36;0.75;;;0.60;;
12407;SDS011;6268;48.188;17.134;2024-03-23T16:36:57;1.38;;;1.00;;
12407;SDS011;6268;48.188;17.134;2024-03-23T16:40:19;2.10;;;1.90;;
12407;SDS011;6268;48.188;17.134;2024-03-23T16:43:41;1.38;;;0.73;;
12407;SDS011;6268;48.188;17.134;2024-03-23T16:47:00;0.50;;;0.50;;
12407;SDS011;6268;48.188;17.134;2024-03-23T16:50:21;0.77;;;0.77;;
12407;SDS011;6268;48.188;17.134;2024-03-23T16:53:40;0.65;;;0.65;;
12407;SDS011;6268;48.188;17.134;2024-03-23T16:57:03;1.27;;;0.50;;
12407;SDS011;6268;48.188;17.134;2024-03-23T17:00:22;1.65;;;0.70;;
12407;SDS011;6268;48.188;17.134;2024-03-23T17:03:46;0.82;;;0.65;;
12407;SDS011;6268;48.188;17.134;2024-03-23T17:07:06;0.60;;;0.60;;
12407;SDS011;6268;48.188;17.134;2024-03-23T17:10:26;0.77;;;0.68;;
12407;SDS011;6268;48.188;17.134;2024-03-23T17:13:51;0.68;;;0.68;;
12407;SDS011;6268;48.188;17.134;2024-03-23T17:17:10;1.23;;;0.50;;
12407;SDS011;6268;48.188;17.134;2024-03-23T17:20:32;2.30;;;1.95;;
12407;SDS011;6268;48.188;17.134;2024-03-23T17:23:53;2.00;;;1.80;;
12407;SDS011;6268;48.188;17.134;2024-03-23T17:27:18;0.80;;;0.73;;
12407;SDS011;6268;48.188;17.134;2024-03-23T17:30:40;2.00;;;0.80;;
12407;SDS011;6268;48.188;17.134;2024-03-23T17:34:00;0.88;;;0.75;;
12407;SDS011;6268;48.188;17.134;2024-03-23T17:37:19;0.90;;;0.88;;
12407;SDS011;6268;48.188;17.134;2024-03-23T17:40:39;1.45;;;1.45;;
12407;SDS011;6268;48.188;17.134;2024-03-23T17:44:00;3.60;;;2.65;;
12407;SDS011;6268;48.188;17.134;2024-03-23T17:47:21;1.50;;;1.40;;
12407;SDS011;6268;48.188;17.134;2024-03-23T17:50:41;1.00;;;0.82;;
12407;SDS011;6268;48.188;17.134;2024-03-23T17:54:02;0.82;;;0.70;;
12407;SDS011;6268;48.188;17.134;2024-03-23T17:57:21;0.93;;;0.70;;
12407;SDS011;6268;48.188;17.134;2024-03-23T18:00:42;1.05;;;0.70;;
12407;SDS011;6268;48.188;17.134;2024-03-23T18:04:05;0.73;;;0.73;;
12407;SDS011;6268;48.188;17.134;2024-03-23T18:07:30;0.68;;;0.68;;
12407;SDS011;6268;48.188;17.134;2024-03-23T18:10:51;0.90;;;0.90;;
12407;SDS011;6268;48.188;17.134;2024-03-23T18:14:10;1.00;;;0.90;;
12407;SDS011;6268;48.188;17.134;2024-03-23T18:17:31;0.75;;;0.70;;
12407;SDS011;6268;48.188;17.134;2024-03-23T18:20:53;2.25;;;0.90;;
12407;SDS011;6268;48.188;17.134;2024-03-23T18:24:13;0.82;;;0.82;;
12407;SDS011;6268;48.188;17.134;2024-03-23T18:27:33;0.70;;;0.70;;
12407;SDS011;6268;48.188;17.134;2024-03-23T18:30:56;1.33;;;1.25;;
12407;SDS011;6268;48.188;17.134;2024-03-23T18:34:16;1.25;;;1.15;;
12407;SDS011;6268;48.188;17.134;2024-03-23T18:37:38;4.20;;;3.85;;
12407;SDS011;6268;48.188;17.134;2024-03-23T18:40:57;1.02;;;1.02;;
12407;SDS011;6268;48.188;17.134;2024-03-23T18:44:17;1.00;;;1.00;;
12407;SDS011;6268;48.188;17.134;2024-03-23T18:47:36;2.20;;;2.10;;
12407;SDS011;6268;48.188;17.134;2024-03-23T18:50:57;1.40;;;1.30;;
12407;SDS011;6268;48.188;17.134;2024-03-23T18:54:23;1.27;;;1.27;;
12407;SDS011;6268;48.188;17.134;2024-03-23T18:57:42;2.53;;;2.33;;
12407;SDS011;6268;48.188;17.134;2024-03-23T19:01:04;1.20;;;1.10;;
12407;SDS011;6268;48.188;17.134;2024-03-23T19:04:25;1.55;;;1.45;;
12407;SDS011;6268;48.188;17.134;2024-03-23T19:07:44;4.07;;;3.78;;
12407;SDS011;6268;48.188;17.134;2024-03-23T19:11:06;2.33;;;2.13;;
12407;SDS011;6268;48.188;17.134;2024-03-23T19:14:25;1.52;;;1.20;;
12407;SDS011;6268;48.188;17.134;2024-03-23T19:17:45;1.20;;;1.10;;
12407;SDS011;6268;48.188;17.134;2024-03-23T19:21:06;1.45;;;1.20;;
12407;SDS011;6268;48.188;17.134;2024-03-23T19:24:25;1.40;;;1.30;;
12407;SDS011;6268;48.188;17.134;2024-03-23T19:27:47;1.20;;;1.00;;
12407;SDS011;6268;48.188;17.134;2024-03-23T19:31:07;1.10;;;1.10;;
12407;SDS011;6268;48.188;17.134;2024-03-23T19:34:26;1.67;;;1.50;;
12407;SDS011;6268;48.188;17.134;2024-03-23T19:37:48;2.17;;;1.98;;
12407;SDS011;6268;48.188;17.134;2024-03-23T19:41:08;2.78;;;1.60;;
12407;SDS011;6268;48.188;17.134;2024-03-23T19:44:29;2.08;;;1.88;;
12407;SDS011;6268;48.188;17.134;2024-03-23T19:47:49;1.30;;;1.13;;
12407;SDS011;6268;48.188;17.134;2024-03-23T19:51:09;1.45;;;0.90;;
12407;SDS011;6268;48.188;17.134;2024-03-23T19:54:32;2.72;;;1.30;;
12407;SDS011;6268;48.188;17.134;2024-03-23T19:57:53;3.00;;;2.50;;
12407;SDS011;6268;48.188;17.134;2024-03-23T20:01:15;1.05;;;1.05;;
12407;SDS011;6268;48.188;17.134;2024-03-23T20:04:36;1.63;;;1.52;;
12407;SDS011;6268;48.188;17.134;2024-03-23T20:07:56;2.00;;;1.90;;
12407;SDS011;6268;48.188;17.134;2024-03-23T20:11:17;1.10;;;1.05;;
12407;SDS011;6268;48.188;17.134;2024-03-23T20:14:37;4.40;;;4.10;;
12407;SDS011;6268;48.188;17.134;2024-03-23T20:17:59;1.10;;;1.10;;
12407;SDS011;6268;48.188;17.134;2024-03-23T20:21:18;1.85;;;1.58;;
12407;SDS011;6268;48.188;17.134;2024-03-23T20:24:39;1.45;;;1.35;;
12407;SDS011;6268;48.188;17.134;2024-03-23T20:27:58;1.65;;;1.52;;
12407;SDS011;6268;48.188;17.134;2024-03-23T20:31:19;1.40;;;1.30;;
12407;SDS011;6268;48.188;17.134;2024-03-23T20:34:40;1.75;;;1.60;;
12407;SDS011;6268;48.188;17.134;2024-03-23T20:38:00;3.35;;;3.05;;
12407;SDS011;6268;48.188;17.134;2024-03-23T20:41:21;1.45;;;1.35;;
12407;SDS011;6268;48.188;17.134;2024-03-23T20:44:40;1.73;;;1.63;;
12407;SDS011;6268;48.188;17.134;2024-03-23T20:48:00;1.50;;;1.40;;